Time;durP1;ratioP1;P1;durP2;ratioP2;P2;SDS_P1;SDS_P2;PMS_P1;PMS_P2;Temp;Humidity;BMP_temperature;BMP_pressure;BME280_temperature;BME280_humidity;BME280_pressure;Samples;Min_cycle;Max_cycle;Signal;HPM_P1;HPM_P2
2021/09/14 00:02:21;;;;;;;32.20;11.95;;;;;;;13.89;68.98;99835.55;1784950;80;21299;-79
2021/09/14 00:05:27;;;;;;;42.23;15.80;;;;;;;13.87;69.74;99835.43;1784400;80;21157;-79
2021/09/14 00:08:32;;;;;;;38.30;13.20;;;;;;;13.83;69.19;99836.90;1785787;80;21287;-79
2021/09/14 00:11:39;;;;;;;49.20;15.32;;;;;;;13.84;71.10;99841.37;1785277;80;21323;-79
2021/09/14 00:14:44;;;;;;;39.15;14.28;;;;;;;13.83;71.41;99843.23;1784094;80;21165;-79
2021/09/14 00:17:50;;;;;;;41.50;15.93;;;;;;;13.86;72.14;99849.70;1784170;80;21741;-79
2021/09/14 00:20:55;;;;;;;40.98;13.70;;;;;;;13.86;72.65;99832.38;1785783;80;21319;-79
2021/09/14 00:24:02;;;;;;;33.18;14.10;;;;;;;13.86;71.97;99834.59;1785830;80;21331;-79
2021/09/14 00:27:07;;;;;;;37.78;14.47;;;;;;;13.85;71.74;99840.30;1785134;80;21522;-79
2021/09/14 00:30:15;;;;;;;35.60;14.38;;;;;;;13.77;71.39;99835.84;1784184;80;21745;-79
2021/09/14 00:33:20;;;;;;;32.17;12.53;;;;;;;13.72;72.00;99832.87;1784992;79;21353;-79
2021/09/14 00:36:26;;;;;;;27.05;13.38;;;;;;;13.72;72.61;99842.49;1784952;80;21243;-79
2021/09/14 00:39:34;;;;;;;37.35;14.85;;;;;;;13.62;71.65;99822.81;1784833;80;21165;-79
2021/09/14 00:42:40;;;;;;;33.50;12.90;;;;;;;13.54;72.32;99827.96;1784867;80;21862;-79
2021/09/14 00:45:45;;;;;;;33.00;13.28;;;;;;;13.52;73.34;99839.70;1774333;80;21255;-79
2021/09/14 00:48:50;;;;;;;30.02;12.82;;;;;;;13.49;72.80;99820.34;1786376;80;21311;-79
2021/09/14 00:51:55;;;;;;;28.85;13.10;;;;;;;13.41;73.03;99819.17;1785960;80;21290;-79
2021/09/14 00:55:00;;;;;;;36.45;14.50;;;;;;;13.40;73.66;99825.70;1786314;80;21310;-79
2021/09/14 00:58:05;;;;;;;30.08;12.47;;;;;;;13.40;73.33;99827.60;1784960;80;21255;-78
2021/09/14 01:01:10;;;;;;;35.75;13.53;;;;;;;13.35;73.35;99829.59;1784888;80;21255;-79
2021/09/14 01:04:17;;;;;;;34.05;13.93;;;;;;;13.36;73.11;99827.69;1786365;80;21315;-79
2021/09/14 01:07:22;;;;;;;39.50;15.00;;;;;;;13.37;73.43;99838.49;1785028;80;21832;-79
2021/09/14 01:10:28;;;;;;;31.62;13.10;;;;;;;13.34;73.00;99829.28;1786449;80;21801;-79
2021/09/14 01:13:34;;;;;;;35.10;13.40;;;;;;;13.24;73.70;99838.44;1786201;80;21149;-79
2021/09/14 01:16:41;;;;;;;35.50;13.38;;;;;;;13.22;73.81;99824.92;1784968;80;21753;-79
2021/09/14 01:19:47;;;;;;;36.17;13.85;;;;;;;13.18;73.87;99835.11;1784846;80;21188;-79
2021/09/14 01:22:54;;;;;;;34.60;13.50;;;;;;;13.15;73.85;99830.86;1785030;80;21204;-79
2021/09/14 01:26:03;;;;;;;38.08;12.33;;;;;;;13.13;73.60;99830.77;1784824;80;21173;-79
2021/09/14 01:32:25;;;;;;;27.67;12.33;;;;;;;13.16;73.27;99834.45;1764655;80;21157;-79
2021/09/14 01:35:28;;;;;;;43.20;13.72;;;;;;;13.13;72.66;99830.77;1781186;80;21860;-79
2021/09/14 01:38:35;;;;;;;28.75;13.22;;;;;;;13.13;72.96;99837.62;1779595;80;21189;-79
2021/09/14 01:41:41;;;;;;;28.83;13.15;;;;;;;13.07;72.40;99839.27;1779727;80;21260;-79
2021/09/14 01:44:46;;;;;;;36.40;13.08;;;;;;;13.06;72.64;99838.95;1780370;80;21153;-79
2021/09/14 01:47:51;;;;;;;28.77;12.15;;;;;;;13.02;71.93;99838.50;1779087;80;21209;-79
2021/09/14 01:50:57;;;;;;;25.80;12.28;;;;;;;12.94;71.93;99837.86;1780156;80;21153;-79
2021/09/14 01:54:04;;;;;;;29.40;13.20;;;;;;;12.89;72.55;99839.83;1778908;80;21205;-79
2021/09/14 01:57:12;;;;;;;26.15;12.78;;;;;;;12.83;72.48;99835.66;1780095;80;21291;-79
2021/09/14 02:00:23;;;;;;;30.48;12.28;;;;;;;12.77;72.31;99835.95;1780459;80;21129;-79
2021/09/14 02:33:56;;;;;;;34.53;14.80;;;;;;;13.04;72.52;99830.93;1780416;80;21276;-79
2021/09/14 02:40:48;;;;;;;30.97;13.95;;;;;;;13.10;71.49;99836.66;1784847;80;21801;-79
2021/09/14 03:00:19;;;;;;;36.13;16.82;;;;;;;12.73;71.74;99855.23;1761381;80;21300;-79
2021/09/14 03:03:24;;;;;;;32.17;16.30;;;;;;;12.69;71.82;99853.41;1784994;79;21180;-79
2021/09/14 03:06:30;;;;;;;43.30;18.48;;;;;;;12.66;71.71;99863.44;1786430;80;21759;-79
2021/09/14 03:09:38;;;;;;;43.52;19.55;;;;;;;12.65;71.85;99862.25;1786327;80;21299;-79
2021/09/14 03:12:44;;;;;;;46.48;19.05;;;;;;;12.60;71.45;99863.37;1784749;80;21165;-79
2021/09/14 03:15:50;;;;;;;46.40;19.40;;;;;;;12.54;71.25;99867.77;1786237;80;21782;-79
2021/09/14 03:18:56;;;;;;;44.27;19.25;;;;;;;12.49;72.03;99865.63;1784610;80;21188;-79
2021/09/14 03:22:02;;;;;;;41.05;19.35;;;;;;;12.52;72.21;99867.98;1782698;80;21729;-78
2021/09/14 03:25:10;;;;;;;53.05;19.92;;;;;;;12.53;72.05;99866.92;1753461;82;21824;-79
2021/09/14 03:28:16;;;;;;;40.92;20.65;;;;;;;12.52;72.01;99871.25;1754160;82;21345;-79
2021/09/14 03:31:22;;;;;;;51.08;19.48;;;;;;;12.51;72.19;99875.89;1761725;80;21297;-79
2021/09/14 03:34:26;;;;;;;48.65;20.23;;;;;;;12.50;72.11;99871.95;1786285;80;21212;-79
2021/09/14 03:37:33;;;;;;;50.20;21.77;;;;;;;12.49;71.87;99871.64;1779008;80;21180;-79
2021/09/14 03:40:39;;;;;;;84.00;25.30;;;;;;;12.47;71.86;99879.23;1776434;81;21283;-79
2021/09/14 03:43:45;;;;;;;84.52;23.80;;;;;;;12.47;72.27;99879.23;1767550;81;21158;-79
2021/09/14 03:46:50;;;;;;;64.80;22.13;;;;;;;12.48;72.45;99877.66;1677946;85;21877;-79
2021/09/14 03:49:57;;;;;;;59.23;21.48;;;;;;;12.54;72.83;99878.75;1754691;82;21217;-79
2021/09/14 03:53:02;;;;;;;52.33;24.07;;;;;;;12.61;72.83;99885.64;1676710;85;21247;-79
2021/09/14 03:56:08;;;;;;;68.35;25.82;;;;;;;12.66;72.34;99885.92;1746865;81;21261;-79
2021/09/14 03:59:17;;;;;;;57.55;26.15;;;;;;;12.70;71.89;99891.30;1740554;82;21320;-79
2021/09/14 04:08:58;;;;;;;59.40;25.57;;;;;;;12.88;71.33;99894.38;1733764;82;21329;-79
2021/09/14 04:12:08;;;;;;;68.53;25.47;;;;;;;12.99;71.42;99904.82;1677807;85;21320;-79
2021/09/14 04:15:15;;;;;;;48.30;25.95;;;;;;;13.13;71.70;99900.78;1753760;82;21332;-79
2021/09/14 04:18:22;;;;;;;59.55;28.32;;;;;;;13.27;71.92;99903.42;1770685;81;21884;-79
2021/09/14 04:21:21;;;;;;;61.70;28.80;;;;;;;13.42;71.79;99913.42;1769340;81;21200;-79
2021/09/14 04:24:26;;;;;;;60.92;29.48;;;;;;;13.57;71.64;99909.99;1760822;81;21272;-79
2021/09/14 04:27:32;;;;;;;57.60;26.30;;;;;;;13.75;71.71;99906.15;1759719;81;21323;-79
2021/09/14 04:30:39;;;;;;;51.90;26.60;;;;;;;13.95;71.42;99903.45;1749722;81;21317;-80
2021/09/14 04:33:47;;;;;;;53.90;24.30;;;;;;;14.15;71.19;99904.00;1758596;81;21129;-79
2021/09/14 04:36:52;;;;;;;50.73;23.18;;;;;;;14.37;71.15;99902.77;1765264;80;21809;-79
2021/09/14 04:39:59;;;;;;;50.23;22.10;;;;;;;14.59;70.97;99905.35;1729670;81;21339;-80
2021/09/14 04:43:07;;;;;;;46.42;23.92;;;;;;;14.81;70.65;99905.41;1710572;81;21291;-80
2021/09/14 04:46:12;;;;;;;55.52;25.43;;;;;;;15.03;70.25;99906.03;1715864;81;21422;-80
2021/09/14 04:49:17;;;;;;;64.32;25.00;;;;;;;15.25;70.59;99910.75;1724538;81;21157;-77
2021/09/14 04:52:23;;;;;;;55.28;26.62;;;;;;;15.47;70.54;99908.00;1726796;81;21338;-77
2021/09/14 04:55:29;;;;;;;38.17;21.73;;;;;;;15.70;70.10;99909.42;1738188;81;21318;-77
2021/09/14 04:58:40;;;;;;;46.15;23.05;;;;;;;15.91;69.57;99908.27;1720181;82;21508;-77
2021/09/14 05:01:46;;;;;;;60.63;21.15;;;;;;;16.14;68.99;99911.82;1722254;81;21283;-76
2021/09/14 05:04:52;;;;;;;45.67;20.05;;;;;;;16.38;68.92;99912.42;1723020;81;21330;-77
2021/09/14 05:07:57;;;;;;;37.90;18.10;;;;;;;16.61;68.90;99911.81;1717982;82;21334;-77
2021/09/14 05:11:03;;;;;;;56.35;18.82;;;;;;;16.78;68.47;99912.10;1723306;81;21193;-78
2021/09/14 05:14:09;;;;;;;53.02;18.37;;;;;;;16.93;67.86;99908.44;1720999;81;21295;-77
2021/09/14 05:17:25;;;;;;;156.32;64.32;;;;;;;17.15;66.67;99909.41;1710680;82;21307;-78
2021/09/14 05:20:33;;;;;;;252.38;117.33;;;;;;;17.38;65.64;99911.80;1682402;83;21905;-77
2021/09/14 05:23:40;;;;;;;392.48;171.07;;;;;;;17.62;64.94;99916.92;1714535;82;21642;-82
2021/09/14 05:26:45;;;;;;;461.32;224.70;;;;;;;17.85;63.86;99918.16;1713060;82;21311;-88
2021/09/14 05:29:50;;;;;;;245.25;118.95;;;;;;;18.06;63.32;99919.02;1688202;83;21361;-87
2021/09/14 05:32:56;;;;;;;146.70;70.90;;;;;;;18.30;62.75;99928.79;1715576;82;21362;-88
2021/09/14 05:36:02;;;;;;;151.93;76.75;;;;;;;18.48;61.48;99927.88;1714431;82;22588;-88
2021/09/14 05:39:08;;;;;;;195.80;82.97;;;;;;;18.68;60.24;99929.80;1701580;82;21161;-88
2021/09/14 05:42:14;;;;;;;140.82;63.08;;;;;;;18.88;59.60;99932.27;1720294;82;21685;-87
2021/09/14 05:45:19;;;;;;;84.52;34.33;;;;;;;19.06;58.62;99927.16;1719179;82;21676;-87
2021/09/14 05:48:25;;;;;;;82.95;36.95;;;;;;;19.25;57.93;99932.03;1717755;79;63461;-77
2021/09/14 05:51:31;;;;;;;166.00;70.25;;;;;;;19.41;57.18;99927.95;1714092;81;21821;-77
2021/09/14 05:54:39;;;;;;;155.50;68.92;;;;;;;19.60;56.38;99925.89;1724937;81;21317;-77
2021/09/14 05:57:46;;;;;;;144.13;60.33;;;;;;;19.78;55.58;99929.05;1738144;80;21904;-77
2021/09/14 06:00:52;;;;;;;175.32;69.27;;;;;;;19.98;54.96;99929.16;1716412;81;21204;-76
2021/09/14 06:03:59;;;;;;;183.90;70.60;;;;;;;20.17;54.33;99932.03;1702111;82;21185;-77
2021/09/14 06:07:04;;;;;;;111.08;44.60;;;;;;;20.34;53.52;99932.09;1695629;82;21260;-77
2021/09/14 06:10:11;;;;;;;131.93;49.13;;;;;;;20.53;52.31;99929.41;1705417;82;21375;-77
2021/09/14 06:13:28;;;;;;;114.55;51.08;;;;;;;20.71;51.74;99928.34;1699875;82;21537;-77
2021/09/14 06:16:35;;;;;;;64.37;24.50;;;;;;;20.89;51.04;99925.30;1703210;82;21352;-77
2021/09/14 06:19:44;;;;;;;78.55;36.85;;;;;;;21.07;50.01;99930.28;1701903;82;21175;-77
2021/09/14 06:22:52;;;;;;;114.10;43.30;;;;;;;21.24;49.19;99930.27;1710729;82;21201;-78
2021/09/14 06:25:59;;;;;;;126.87;36.05;;;;;;;21.41;48.43;99927.78;1715674;82;21326;-77
2021/09/14 06:29:04;;;;;;;95.32;31.25;;;;;;;21.59;48.67;99922.98;1704923;82;21291;-77
2021/09/14 06:32:12;;;;;;;74.70;27.60;;;;;;;21.77;47.86;99926.84;1688526;82;21754;-78
2021/09/14 06:35:19;;;;;;;64.70;26.55;;;;;;;21.93;46.63;99930.68;1704834;82;21895;-78
2021/09/14 06:41:14;;;;;;;62.38;20.92;;;;;;;22.34;46.14;99924.17;1840258;76;28169;-78
2021/09/14 06:44:25;;;;;;;42.55;14.87;;;;;;;22.44;45.71;99925.66;1814077;77;21391;-78
2021/09/14 06:47:45;;;;;;;25.62;11.08;;;;;;;22.62;45.26;99932.81;1813860;77;21679;-78
2021/09/14 06:51:02;;;;;;;26.70;9.43;;;;;;;22.78;45.44;99937.98;1770763;77;21164;-84
2021/09/14 06:54:10;;;;;;;36.15;8.80;;;;;;;22.93;45.02;99939.53;1817716;77;21349;-77
2021/09/14 06:57:15;;;;;;;30.90;8.73;;;;;;;23.10;44.01;99939.36;1813734;77;21130;-77
2021/09/14 07:00:22;;;;;;;32.58;10.60;;;;;;;23.23;43.33;99933.33;1808472;77;21202;-78
2021/09/14 07:03:27;;;;;;;27.48;8.35;;;;;;;23.36;43.20;99938.44;1785032;78;21639;-78
2021/09/14 07:06:38;;;;;;;155.45;13.03;;;;;;;23.49;42.96;99946.89;1696012;81;21279;-78
2021/09/14 07:09:43;;;;;;;126.87;11.80;;;;;;;23.61;42.76;99934.94;1730314;80;21220;-78
2021/09/14 07:12:50;;;;;;;50.40;9.33;;;;;;;23.75;42.56;99930.30;1718639;81;21210;-77
2021/09/14 07:15:57;;;;;;;31.37;8.95;;;;;;;23.88;41.54;99934.83;1730178;81;21295;-78
2021/09/14 07:19:08;;;;;;;37.03;8.83;;;;;;;24.03;41.75;99932.64;1711765;82;21176;-78
2021/09/14 07:22:21;;;;;;;33.45;8.83;;;;;;;24.14;41.44;99932.97;1705128;82;21165;-78
2021/09/14 07:25:38;;;;;;;29.55;9.18;;;;;;;24.26;42.40;99930.48;1724934;81;21265;-76
2021/09/14 07:28:39;;;;;;;33.18;9.73;;;;;;;24.39;41.80;99937.80;1714755;81;21702;-76
2021/09/14 07:31:49;;;;;;;32.33;9.33;;;;;;;24.50;40.95;99930.27;1727833;81;21404;-78
2021/09/14 07:34:56;;;;;;;28.65;7.10;;;;;;;24.59;41.14;99931.40;1728313;80;21290;-77
2021/09/14 07:38:00;;;;;;;27.70;8.08;;;;;;;24.71;39.95;99935.34;1724001;81;21248;-77
2021/09/14 07:41:06;;;;;;;35.52;8.18;;;;;;;24.79;39.83;99929.16;1705837;82;21831;-76
2021/09/14 07:44:12;;;;;;;40.88;8.03;;;;;;;24.88;39.70;99934.48;1696655;82;21194;-79
2021/09/14 07:47:17;;;;;;;26.87;7.97;;;;;;;24.98;38.56;99936.44;1696913;82;21185;-79
2021/09/14 07:50:24;;;;;;;25.50;6.55;;;;;;;25.04;37.92;99931.14;1698059;82;21261;-78
2021/09/14 07:53:30;;;;;;;26.07;6.92;;;;;;;25.12;38.34;99925.55;1697093;82;21340;-77
2021/09/14 07:56:35;;;;;;;29.98;6.70;;;;;;;25.20;37.98;99924.41;1694631;82;21630;-78
2021/09/14 07:59:41;;;;;;;24.87;6.72;;;;;;;25.30;38.02;99921.33;1697460;82;21276;-77
2021/09/14 08:02:47;;;;;;;22.60;6.55;;;;;;;25.39;37.02;99932.22;1693761;82;21197;-77
2021/09/14 08:05:53;;;;;;;24.30;6.92;;;;;;;25.46;37.40;99928.58;1692429;82;21221;-77
2021/09/14 08:08:59;;;;;;;25.72;7.05;;;;;;;25.55;37.26;99922.67;1701868;82;21297;-77
2021/09/14 08:12:05;;;;;;;24.52;6.97;;;;;;;25.63;36.22;99922.63;1692407;82;21209;-76
2021/09/14 08:15:13;;;;;;;21.62;6.30;;;;;;;25.68;37.29;99923.45;1696097;82;21204;-77
2021/09/14 08:18:19;;;;;;;21.42;5.65;;;;;;;25.79;37.42;99926.27;1697227;82;21389;-77
2021/09/14 08:21:27;;;;;;;25.43;6.92;;;;;;;25.85;36.32;99925.11;1694332;82;21234;-76
2021/09/14 08:24:37;;;;;;;35.78;5.78;;;;;;;25.87;36.18;99919.48;1695947;82;21265;-77
2021/09/14 08:27:44;;;;;;;19.37;5.72;;;;;;;25.87;34.98;99912.47;1695224;83;21225;-76
2021/09/14 08:30:50;;;;;;;23.75;6.05;;;;;;;25.84;34.95;99916.44;1693290;83;21205;-76
2021/09/14 08:33:58;;;;;;;24.67;5.85;;;;;;;25.85;35.48;99914.73;1677408;83;21547;-77
2021/09/14 08:37:03;;;;;;;21.17;6.40;;;;;;;25.90;35.14;99905.48;1698317;82;21210;-78
2021/09/14 08:40:09;;;;;;;13.90;5.83;;;;;;;25.92;35.83;99910.21;1706483;81;21271;-77
2021/09/14 08:43:18;;;;;;;25.43;6.22;;;;;;;25.98;35.16;99909.08;1731815;81;21252;-77
2021/09/14 08:46:27;;;;;;;31.05;6.58;;;;;;;26.03;34.62;99913.26;1761286;79;21585;-77
2021/09/14 08:49:42;;;;;;;23.92;5.50;;;;;;;26.09;35.76;99910.69;1719019;82;21811;-78
2021/09/14 08:52:52;;;;;;;18.37;5.83;;;;;;;26.15;35.99;99905.33;1767647;79;21189;-79
2021/09/14 08:55:57;;;;;;;19.92;6.42;;;;;;;26.22;35.52;99907.83;1769062;79;22638;-79
2021/09/14 08:59:09;;;;;;;18.45;5.70;;;;;;;26.28;35.61;99908.63;1771319;79;21336;-76
2021/09/14 09:02:20;;;;;;;21.68;6.83;;;;;;;26.32;35.05;99911.13;1768929;79;21362;-77
2021/09/14 09:05:24;;;;;;;15.78;5.70;;;;;;;26.34;34.87;99908.29;1768568;79;21442;-77
2021/09/14 09:08:32;;;;;;;16.45;5.08;;;;;;;26.34;34.16;99906.05;1769207;79;21174;-78
2021/09/14 09:11:38;;;;;;;20.27;5.17;;;;;;;26.32;33.47;99902.72;1766760;79;22342;-79
2021/09/14 09:14:57;;;;;;;29.60;5.83;;;;;;;26.29;34.15;99899.08;1724084;79;21213;-77
2021/09/14 09:18:16;;;;;;;19.05;5.28;;;;;;;26.31;34.19;99897.68;1747793;79;22009;-79
2021/09/14 09:21:23;;;;;;;16.00;5.17;;;;;;;26.34;33.07;99893.44;1766989;79;21351;-78
2021/09/14 09:24:29;;;;;;;19.62;5.65;;;;;;;26.38;33.29;99897.34;1765983;79;21322;-77
2021/09/14 09:27:38;;;;;;;23.15;6.58;;;;;;;26.44;33.63;99896.20;1767546;79;21366;-81
2021/09/14 09:30:48;;;;;;;18.05;5.53;;;;;;;26.52;34.31;99891.38;1769934;79;22268;-77
2021/09/14 09:34:12;;;;;;;19.27;5.87;;;;;;;26.61;33.82;99892.43;1748967;79;21970;-78
2021/09/14 09:37:19;;;;;;;16.90;5.67;;;;;;;26.71;33.29;99895.72;1752762;79;21186;-78
2021/09/14 09:40:45;;;;;;;21.40;5.42;;;;;;;26.79;32.68;99895.09;1769304;79;22097;-78
2021/09/14 09:43:50;;;;;;;18.10;4.87;;;;;;;26.80;33.24;99885.54;1766112;79;21319;-77
2021/09/14 09:47:03;;;;;;;18.15;5.62;;;;;;;26.81;33.54;99887.78;1767130;79;21250;-77
2021/09/14 09:50:08;;;;;;;22.62;4.50;;;;;;;26.82;32.63;99883.30;1770747;79;21164;-78
2021/09/14 09:53:15;;;;;;;14.90;5.03;;;;;;;26.85;32.93;99883.25;1766518;79;21574;-77
2021/09/14 09:56:20;;;;;;;30.97;5.97;;;;;;;26.93;32.70;99894.69;1767139;79;21294;-79
2021/09/14 09:59:27;;;;;;;16.70;5.62;;;;;;;26.94;32.75;99886.53;1770595;80;21327;-78
2021/09/14 10:02:33;;;;;;;14.85;6.00;;;;;;;26.98;31.98;99883.41;1769817;79;21762;-77
2021/09/14 10:05:44;;;;;;;21.07;6.22;;;;;;;27.10;32.38;99879.39;1768807;79;21178;-77
2021/09/14 10:08:57;;;;;;;16.95;6.90;;;;;;;27.21;32.66;99876.20;1770250;79;21327;-76
2021/09/14 10:12:03;;;;;;;18.60;7.37;;;;;;;27.33;32.33;99872.13;1768652;79;21356;-77
2021/09/14 10:15:16;;;;;;;19.73;7.08;;;;;;;27.40;32.73;99879.64;1731918;79;21204;-76
2021/09/14 10:18:30;;;;;;;21.93;6.20;;;;;;;27.45;32.90;99873.39;1720379;80;21240;-78
2021/09/14 10:21:34;;;;;;;;;;;;;;;27.54;32.68;99869.36;1773050;79;21332;-78
2021/09/14 10:24:41;;;;;;;24.67;7.58;;;;;;;27.57;31.17;99877.20;1739305;79;20238;-78
2021/09/14 10:27:49;;;;;;;18.67;8.00;;;;;;;27.53;30.99;99880.91;1732855;80;21184;-78
2021/09/14 10:30:57;;;;;;;15.38;6.95;;;;;;;27.42;30.58;99882.41;1769689;79;21162;-78
2021/09/14 10:34:15;;;;;;;20.62;7.35;;;;;;;27.31;30.95;99875.25;1766559;79;21307;-77
2021/09/14 10:37:20;;;;;;;15.48;7.25;;;;;;;27.24;30.89;99869.13;1766319;79;21245;-78
2021/09/14 10:40:29;;;;;;;20.72;7.95;;;;;;;27.18;31.09;99871.73;1732199;79;22292;-78
2021/09/14 10:43:40;;;;;;;16.40;7.65;;;;;;;27.16;31.20;99866.42;1768131;79;21173;-78
2021/09/14 10:46:50;;;;;;;12.55;7.00;;;;;;;27.22;30.66;99862.99;1769693;79;21357;-79
2021/09/14 10:50:03;;;;;;;22.58;6.90;;;;;;;27.24;30.92;99853.69;1771755;79;21264;-77
2021/09/14 10:53:10;;;;;;;18.05;7.25;;;;;;;27.33;31.89;99864.54;1771869;79;21189;-77
2021/09/14 10:56:17;;;;;;;17.73;7.00;;;;;;;27.40;31.25;99865.60;1769630;79;21190;-78
2021/09/14 10:59:25;;;;;;;17.87;7.65;;;;;;;27.35;31.47;99864.27;1770308;79;21960;-78
2021/09/14 11:02:33;;;;;;;16.87;6.92;;;;;;;27.30;31.73;99863.75;1768216;79;21304;-77
2021/09/14 11:05:43;;;;;;;14.40;7.22;;;;;;;27.23;30.49;99861.85;1769790;79;22898;-78
2021/09/14 11:08:49;;;;;;;13.85;6.90;;;;;;;27.12;30.41;99863.11;1767075;79;21867;-77
2021/09/14 11:11:58;;;;;;;22.62;6.95;;;;;;;27.00;30.43;99860.66;1753749;79;21193;-78
2021/09/14 11:15:09;;;;;;;14.33;7.03;;;;;;;26.91;30.50;99849.80;1769528;79;21288;-77
2021/09/14 11:18:37;;;;;;;16.55;8.33;;;;;;;26.81;30.90;99855.52;1763676;79;21275;-77
2021/09/14 11:21:57;;;;;;;21.20;7.17;;;;;;;26.73;30.37;99852.23;1733523;79;21182;-80
2021/09/14 11:25:08;;;;;;;21.52;7.58;;;;;;;26.69;30.77;99852.54;1714666;79;21170;-77
2021/09/14 11:28:22;;;;;;;10.60;6.83;;;;;;;26.73;30.31;99855.61;1739885;79;21224;-78
2021/09/14 11:31:27;;;;;;;13.60;7.08;;;;;;;26.82;30.89;99858.05;1770401;79;21292;-78
2021/09/14 11:34:32;;;;;;;21.65;7.37;;;;;;;26.91;30.78;99852.61;1765655;79;21189;-78
2021/09/14 11:37:38;;;;;;;20.30;7.85;;;;;;;26.97;30.15;99844.43;1765528;79;21830;-78
2021/09/14 11:40:54;;;;;;;20.25;7.53;;;;;;;27.06;29.57;99846.03;1714051;82;21318;-77
2021/09/14 11:44:00;;;;;;;19.00;6.67;;;;;;;27.15;29.39;99842.30;1768287;79;21303;-79
2021/09/14 11:47:19;;;;;;;30.95;7.65;;;;;;;27.20;29.86;99842.81;1769824;79;21335;-78
2021/09/14 11:50:39;;;;;;;11.40;6.60;;;;;;;27.21;30.14;99836.06;1767416;79;21216;-77
2021/09/14 11:53:47;;;;;;;14.15;5.83;;;;;;;27.24;29.05;99842.46;1767924;79;21311;-77
2021/09/14 11:56:53;;;;;;;17.75;6.60;;;;;;;27.28;28.54;99844.11;1767430;79;21236;-77
2021/09/14 12:00:01;;;;;;;26.60;8.23;;;;;;;27.24;29.07;99834.91;1752815;79;21324;-78
2021/09/14 12:03:07;;;;;;;17.73;7.87;;;;;;;27.24;30.08;99835.44;1767204;79;21785;-78
2021/09/14 12:06:14;;;;;;;21.57;8.35;;;;;;;27.18;30.75;99834.67;1764040;79;21202;-78
2021/09/14 12:09:20;;;;;;;21.50;7.78;;;;;;;27.15;31.00;99839.50;1769000;79;22217;-77
2021/09/14 12:12:28;;;;;;;33.73;8.13;;;;;;;27.13;30.61;99833.33;1708621;81;21519;-78
2021/09/14 12:15:37;;;;;;;17.98;8.13;;;;;;;27.11;30.86;99833.37;1770142;79;21210;-78
2021/09/14 12:18:42;;;;;;;23.12;8.20;;;;;;;27.07;30.37;99838.70;1766585;79;21307;-78
2021/09/14 12:21:48;;;;;;;21.02;7.25;;;;;;;27.00;30.39;99842.41;1764744;79;21217;-78
2021/09/14 12:24:54;;;;;;;16.27;7.55;;;;;;;26.82;30.28;99840.34;1768655;79;21661;-77
2021/09/14 12:27:59;;;;;;;23.00;7.85;;;;;;;26.69;30.37;99838.52;1718743;82;21501;-78
2021/09/14 12:31:05;;;;;;;19.32;8.23;;;;;;;26.66;30.05;99837.69;1769338;79;21340;-77
2021/09/14 12:34:11;;;;;;;19.37;6.83;;;;;;;26.67;29.59;99838.52;1776652;79;21374;-76
2021/09/14 12:37:16;;;;;;;22.60;7.67;;;;;;;26.68;29.40;99833.21;1771658;79;21320;-77
2021/09/14 12:40:22;;;;;;;29.55;7.72;;;;;;;26.67;29.90;99833.75;1772593;79;21181;-77
2021/09/14 12:43:27;;;;;;;21.95;8.15;;;;;;;26.68;30.51;99822.83;1709406;82;21285;-77
2021/09/14 12:46:33;;;;;;;16.82;8.18;;;;;;;26.66;30.46;99829.28;1773630;79;21330;-78
2021/09/14 12:49:38;;;;;;;20.10;8.50;;;;;;;26.63;30.68;99829.89;1781225;79;21165;-78
2021/09/14 12:52:45;;;;;;;16.42;9.10;;;;;;;26.62;31.20;99836.60;1777036;79;21442;-78
2021/09/14 12:55:51;;;;;;;18.85;9.13;;;;;;;26.62;31.41;99841.37;1774640;79;21196;-77
2021/09/14 12:58:57;;;;;;;22.67;9.18;;;;;;;26.61;31.68;99833.53;1778773;79;21251;-77
2021/09/14 13:02:03;;;;;;;20.70;9.05;;;;;;;26.60;31.78;99845.89;1777125;79;21318;-77
2021/09/14 13:05:09;;;;;;;18.90;9.00;;;;;;;26.60;32.01;99840.28;1780937;79;21193;-77
2021/09/14 13:08:15;;;;;;;21.68;9.28;;;;;;;26.59;31.69;99840.02;1779162;79;21232;-77
2021/09/14 13:11:22;;;;;;;23.05;9.25;;;;;;;26.58;31.70;99839.72;1781275;79;21173;-77
2021/09/14 13:17:51;;;;;;;26.00;9.45;;;;;;;26.54;32.31;99837.26;1726851;82;21355;-78
2021/09/14 13:20:57;;;;;;;15.08;8.68;;;;;;;26.52;32.16;99845.11;1701240;83;21229;-77
2021/09/14 13:24:04;;;;;;;19.48;8.70;;;;;;;26.49;32.31;99842.91;1729690;82;21218;-77
2021/09/14 13:27:10;;;;;;;19.85;8.98;;;;;;;26.45;32.68;99837.05;1727601;82;21145;-77
2021/09/14 13:30:17;;;;;;;13.10;8.40;;;;;;;26.41;32.80;99839.30;1723089;81;21258;-77
2021/09/14 13:33:22;;;;;;;22.42;9.48;;;;;;;26.37;32.40;99839.03;1723440;82;21342;-77
2021/09/14 13:36:27;;;;;;;22.45;9.45;;;;;;;26.34;32.51;99838.20;1719220;82;21744;-77
2021/09/14 13:39:35;;;;;;;27.30;9.33;;;;;;;26.31;32.86;99833.77;1721218;82;21751;-77
2021/09/14 13:42:42;;;;;;;22.95;8.93;;;;;;;26.28;33.17;99832.94;1720824;82;21245;-78
2021/09/14 13:49:13;;;;;;;14.43;9.08;;;;;;;26.23;34.39;99841.66;1681231;84;21391;-77
2021/09/14 13:52:18;;;;;;;18.23;9.43;;;;;;;26.23;35.50;99840.25;1707233;82;21761;-77
2021/09/14 13:55:25;;;;;;;17.98;9.48;;;;;;;26.23;35.97;99838.85;1680146;85;21332;-77
2021/09/14 13:58:31;;;;;;;14.85;9.50;;;;;;;26.21;36.05;99838.89;1681407;85;21323;-76
2021/09/14 14:01:37;;;;;;;14.93;8.58;;;;;;;26.20;36.41;99842.80;1681559;85;21201;-76
2021/09/14 14:04:43;;;;;;;14.58;8.90;;;;;;;26.17;36.87;99844.23;1706964;84;21299;-77
2021/09/14 14:07:49;;;;;;;14.10;8.83;;;;;;;26.18;37.72;99857.67;1707684;84;21231;-77
2021/09/14 14:10:54;;;;;;;20.52;8.45;;;;;;;26.16;38.03;99869.19;1707784;84;21220;-77
2021/09/14 14:13:59;;;;;;;12.10;8.38;;;;;;;26.12;38.71;99863.05;1708160;84;21862;-77
2021/09/14 14:17:05;;;;;;;17.70;8.85;;;;;;;26.06;38.67;99856.62;1707187;84;21184;-77
2021/09/14 14:20:10;;;;;;;14.40;7.53;;;;;;;26.01;38.94;99858.05;1708266;84;21296;-77
2021/09/14 14:23:16;;;;;;;20.72;8.70;;;;;;;25.95;39.51;99859.22;1707508;84;21318;-77
2021/09/14 14:26:15;;;;;;;15.60;8.83;;;;;;;25.86;40.02;99855.34;1707268;84;21299;-77
2021/09/14 14:29:21;;;;;;;15.15;8.15;;;;;;;25.78;40.12;99853.97;1707397;84;21802;-76
2021/09/14 14:32:29;;;;;;;15.30;9.20;;;;;;;25.69;40.30;99860.73;1706789;84;21345;-76
2021/09/14 14:35:35;;;;;;;20.23;7.92;;;;;;;25.62;40.28;99853.75;1706559;82;21381;-76
2021/09/14 14:38:47;;;;;;;14.30;8.50;;;;;;;25.53;40.56;99857.70;1706169;84;21219;-77
2021/09/14 14:41:49;;;;;;;12.95;7.75;;;;;;;25.44;40.54;99867.25;1706257;84;21260;-77
2021/09/14 14:44:54;;;;;;;10.00;6.87;;;;;;;25.36;40.54;99858.59;1707621;84;21846;-77
2021/09/14 14:48:00;;;;;;;14.55;7.65;;;;;;;25.26;40.86;99867.03;1712149;83;21391;-76
2021/09/14 14:51:06;;;;;;;18.25;6.78;;;;;;;25.17;41.28;99871.83;1768127;81;21218;-77
2021/09/14 14:54:11;;;;;;;16.67;6.70;;;;;;;25.08;41.62;99874.06;1768261;81;21284;-77
2021/09/14 14:57:16;;;;;;;9.50;6.55;;;;;;;24.98;41.96;99864.56;1766879;81;21166;-77
2021/09/14 15:00:22;;;;;;;12.53;6.42;;;;;;;24.92;42.16;99870.43;1768039;81;21851;-77
2021/09/14 15:03:30;;;;;;;7.87;5.33;;;;;;;24.85;42.21;99868.49;1767085;81;21324;-77
2021/09/14 15:06:36;;;;;;;9.00;5.60;;;;;;;24.78;42.35;99872.95;1766583;80;21257;-76
2021/09/14 15:09:41;;;;;;;11.18;6.05;;;;;;;24.71;42.54;99873.25;1768333;81;21162;-77
2021/09/14 15:12:46;;;;;;;13.05;5.75;;;;;;;24.65;42.53;99877.14;1768252;81;21288;-77
2021/09/14 15:15:52;;;;;;;10.80;5.28;;;;;;;24.59;42.59;99878.27;1766705;80;21190;-77
2021/09/14 15:19:00;;;;;;;9.73;5.40;;;;;;;24.53;42.65;99878.56;1766648;80;21236;-76
2021/09/14 15:22:07;;;;;;;10.25;4.78;;;;;;;24.46;42.69;99880.22;1766742;80;21178;-76
2021/09/14 15:25:09;;;;;;;17.60;4.72;;;;;;;24.37;42.50;99877.70;1769371;81;21268;-77
2021/09/14 15:28:14;;;;;;;6.83;4.62;;;;;;;24.29;42.35;99885.22;1767134;81;21343;-77
2021/09/14 15:31:20;;;;;;;11.15;4.37;;;;;;;24.19;42.04;99884.65;1767537;81;21666;-77
2021/09/14 15:34:26;;;;;;;13.60;4.67;;;;;;;24.09;42.03;99884.60;1766015;81;21922;-77
2021/09/14 15:37:31;;;;;;;10.50;4.30;;;;;;;24.00;41.95;99882.09;1766854;81;21711;-76